PWSweather.com
Personal Weather Stations
Station Observations
IPOMMEUS2
PommeuseFR 77515

PommeuseFR 77515

Lat: 48.805, Lon: 3.015

Elevation: 0

Station Type: Oregon Scientific WMRS200

http://meteo.glou-prods.net/

High Low Average
Temperature 56.5°F13.6°C 27.1°F-2.7°C 40.5°F4.7°C
Dew Point 44.8°F7.1°C 23.5°F-4.7°C 32.8°F0.4°C
Winds 5.8 mph 9.3 kmh 0.2 mph 0.3 kmh 3.0 mph SE4.8 kmh SE
Wind Gusts 17.5 mph28.2 kmh -- 5.0 mph8.0 kmh
Humidity 98% 35% 77%
Pressure 30.00 in1015.9 mb 29.41 in995.9 mb -
Precipitation 0.21 in5.3 mm - -
Hour Temp Dew Point Humidity Winds Wind Gusts Pressure Precip Precip Rate Daily Precip Total
12:09 AM 30.9°F-0.6°C 24.8°F-4.0°C 78% - E16091.8 kmh E -- 29.97 in1014.9 mb 0.00 in0.0 mm 0.00 in/hr0.0 mm/hr 0.00 in0.0 mm
12:19 AM 30.6°F-0.8°C 24.4°F-4.2°C 78% - E16091.8 kmh E -- 29.97 in1014.9 mb 0.00 in0.0 mm 0.00 in/hr0.0 mm/hr 0.00 in0.0 mm
12:29 AM 30.4°F-0.9°C 24.6°F-4.1°C 79% - E16091.8 kmh E 0.9 mph1.4 kmh 29.97 in1014.9 mb 0.00 in0.0 mm 0.00 in/hr0.0 mm/hr 0.00 in0.0 mm
12:39 AM 30.2°F-1.0°C 24.4°F-4.2°C 79% - E16091.8 kmh E -- 29.96 in1014.6 mb 0.00 in0.0 mm 0.00 in/hr0.0 mm/hr 0.00 in0.0 mm
12:49 AM 30.2°F-1.0°C 24.8°F-4.0°C 80% - SSW16091.8 kmh SSW 2.0 mph3.2 kmh 29.94 in1013.9 mb 0.00 in0.0 mm 0.00 in/hr0.0 mm/hr 0.00 in0.0 mm
12:59 AM 30.0°F-1.1°C 25.0°F-3.9°C 81% - E16091.8 kmh E -- 29.94 in1013.9 mb 0.00 in0.0 mm 0.00 in/hr0.0 mm/hr 0.00 in0.0 mm
01:09 AM 29.7°F-1.3°C 24.3°F-4.3°C 80% - E16091.8 kmh E -- 29.97 in1014.9 mb 0.00 in0.0 mm 0.00 in/hr0.0 mm/hr 0.00 in0.0 mm
01:19 AM 29.5°F-1.4°C 24.4°F-4.2°C 81% - E16091.8 kmh E -- 30.00 in1015.9 mb 0.00 in0.0 mm 0.00 in/hr0.0 mm/hr 0.00 in0.0 mm
01:29 AM 29.3°F-1.5°C 24.3°F-4.3°C 81% - E16091.8 kmh E 0.9 mph1.4 kmh 29.98 in1015.2 mb 0.00 in0.0 mm 0.00 in/hr0.0 mm/hr 0.00 in0.0 mm
01:39 AM 29.3°F-1.5°C 24.3°F-4.3°C 81% - E16091.8 kmh E -- 29.96 in1014.6 mb 0.00 in0.0 mm 0.00 in/hr0.0 mm/hr 0.00 in0.0 mm
01:49 AM 28.9°F-1.7°C 24.1°F-4.4°C 82% - E16091.8 kmh E -- 29.94 in1013.9 mb 0.00 in0.0 mm 0.00 in/hr0.0 mm/hr 0.00 in0.0 mm
01:59 AM 28.8°F-1.8°C 23.9°F-4.5°C 82% - E16091.8 kmh E -- 29.94 in1013.9 mb 0.00 in0.0 mm 0.00 in/hr0.0 mm/hr 0.00 in0.0 mm
02:09 AM 28.8°F-1.8°C 24.3°F-4.3°C 83% 0.2 mph SSW0.3 kmh SSW 1.3 mph2.1 kmh 29.94 in1013.9 mb 0.00 in0.0 mm 0.00 in/hr0.0 mm/hr 0.00 in0.0 mm
02:19 AM 28.8°F-1.8°C 24.6°F-4.1°C 84% - E16091.8 kmh E 1.1 mph1.8 kmh 29.94 in1013.9 mb 0.00 in0.0 mm 0.00 in/hr0.0 mm/hr 0.00 in0.0 mm
02:29 AM 28.8°F-1.8°C 24.6°F-4.1°C 84% - E16091.8 kmh E -- 29.94 in1013.9 mb 0.00 in0.0 mm 0.00 in/hr0.0 mm/hr 0.00 in0.0 mm
02:40 AM 28.4°F-2.0°C 24.3°F-4.3°C 84% - E16091.8 kmh E -- 29.93 in1013.5 mb 0.00 in0.0 mm 0.00 in/hr0.0 mm/hr 0.00 in0.0 mm
02:50 AM 28.0°F-2.2°C 24.1°F-4.4°C 85% - E16091.8 kmh E -- 29.91 in1012.9 mb 0.00 in0.0 mm 0.00 in/hr0.0 mm/hr 0.00 in0.0 mm
03:00 AM 27.9°F-2.3°C 23.7°F-4.6°C 84% - E16091.8 kmh E -- 29.91 in1012.9 mb 0.00 in0.0 mm 0.00 in/hr0.0 mm/hr 0.00 in0.0 mm
03:10 AM 27.9°F-2.3°C 23.7°F-4.6°C 84% - E16091.8 kmh E -- 29.90 in1012.5 mb 0.00 in0.0 mm 0.00 in/hr0.0 mm/hr 0.00 in0.0 mm
03:20 AM 27.9°F-2.3°C 23.9°F-4.5°C 85% - E16091.8 kmh E 1.1 mph1.8 kmh 29.88 in1011.9 mb 0.00 in0.0 mm 0.00 in/hr0.0 mm/hr 0.00 in0.0 mm
03:30 AM 27.9°F-2.3°C 23.9°F-4.5°C 85% - E16091.8 kmh E -- 29.88 in1011.9 mb 0.00 in0.0 mm 0.00 in/hr0.0 mm/hr 0.00 in0.0 mm
03:40 AM 27.9°F-2.3°C 23.9°F-4.5°C 85% - E16091.8 kmh E -- 29.90 in1012.5 mb 0.00 in0.0 mm 0.00 in/hr0.0 mm/hr 0.00 in0.0 mm
03:50 AM 27.7°F-2.4°C 23.7°F-4.6°C 85% 0.2 mph SSW0.3 kmh SSW 1.3 mph2.1 kmh 29.91 in1012.9 mb 0.00 in0.0 mm 0.00 in/hr0.0 mm/hr 0.00 in0.0 mm
04:00 AM 27.7°F-2.4°C 24.1°F-4.4°C 86% - E16091.8 kmh E -- 29.91 in1012.9 mb 0.00 in0.0 mm 0.00 in/hr0.0 mm/hr 0.00 in0.0 mm
04:10 AM 27.5°F-2.5°C 23.9°F-4.5°C 86% - E16091.8 kmh E -- 29.91 in1012.9 mb 0.00 in0.0 mm 0.00 in/hr0.0 mm/hr 0.00 in0.0 mm
04:20 AM 27.3°F-2.6°C 23.7°F-4.6°C 86% - E16091.8 kmh E 1.1 mph1.8 kmh 29.91 in1012.9 mb 0.00 in0.0 mm 0.00 in/hr0.0 mm/hr 0.00 in0.0 mm
04:30 AM 27.3°F-2.6°C 23.7°F-4.6°C 86% - E16091.8 kmh E -- 29.88 in1011.9 mb 0.00 in0.0 mm 0.00 in/hr0.0 mm/hr 0.00 in0.0 mm
04:40 AM 27.3°F-2.6°C 23.7°F-4.6°C 86% - E16091.8 kmh E -- 29.88 in1011.9 mb 0.00 in0.0 mm 0.00 in/hr0.0 mm/hr 0.00 in0.0 mm
04:50 AM 27.1°F-2.7°C 23.5°F-4.7°C 86% - E16091.8 kmh E -- 29.88 in1011.9 mb 0.00 in0.0 mm 0.00 in/hr0.0 mm/hr 0.00 in0.0 mm
05:00 AM 27.1°F-2.7°C 23.5°F-4.7°C 86% - E16091.8 kmh E -- 29.85 in1010.8 mb 0.00 in0.0 mm 0.00 in/hr0.0 mm/hr 0.00 in0.0 mm
05:10 AM 27.5°F-2.5°C 24.1°F-4.4°C 87% - E16091.8 kmh E -- 29.84 in1010.5 mb 0.00 in0.0 mm 0.00 in/hr0.0 mm/hr 0.00 in0.0 mm
05:20 AM 27.5°F-2.5°C 24.1°F-4.4°C 87% 0.2 mph SSE0.3 kmh SSE 1.3 mph2.1 kmh 29.83 in1010.2 mb 0.00 in0.0 mm 0.00 in/hr0.0 mm/hr 0.00 in0.0 mm
05:30 AM 27.3°F-2.6°C 23.9°F-4.5°C 87% - E16091.8 kmh E -- 29.85 in1010.8 mb 0.00 in0.0 mm 0.00 in/hr0.0 mm/hr 0.00 in0.0 mm
05:40 AM 27.3°F-2.6°C 23.9°F-4.5°C 87% - E16091.8 kmh E -- 29.85 in1010.8 mb 0.00 in0.0 mm 0.00 in/hr0.0 mm/hr 0.00 in0.0 mm
05:50 AM 27.1°F-2.7°C 23.7°F-4.6°C 87% - E16091.8 kmh E -- 29.85 in1010.8 mb 0.00 in0.0 mm 0.00 in/hr0.0 mm/hr 0.00 in0.0 mm
06:00 AM 27.1°F-2.7°C 23.7°F-4.6°C 87% - E16091.8 kmh E 1.1 mph1.8 kmh 29.85 in1010.8 mb 0.00 in0.0 mm 0.00 in/hr0.0 mm/hr 0.00 in0.0 mm
06:10 AM 27.1°F-2.7°C 23.7°F-4.6°C 87% - E16091.8 kmh E -- 29.85 in1010.8 mb 0.00 in0.0 mm 0.00 in/hr0.0 mm/hr 0.00 in0.0 mm
06:20 AM 27.1°F-2.7°C 24.1°F-4.4°C 88% - E16091.8 kmh E -- 29.85 in1010.8 mb 0.00 in0.0 mm 0.00 in/hr0.0 mm/hr 0.00 in0.0 mm
06:30 AM 27.1°F-2.7°C 24.1°F-4.4°C 88% - E16091.8 kmh E -- 29.83 in1010.2 mb 0.00 in0.0 mm 0.00 in/hr0.0 mm/hr 0.00 in0.0 mm
06:40 AM 27.7°F-2.4°C 24.6°F-4.1°C 88% - E16091.8 kmh E -- 29.83 in1010.2 mb 0.00 in0.0 mm 0.00 in/hr0.0 mm/hr 0.00 in0.0 mm
06:50 AM 28.6°F-1.9°C 25.5°F-3.6°C 88% - E16091.8 kmh E -- 29.83 in1010.2 mb 0.00 in0.0 mm 0.00 in/hr0.0 mm/hr 0.00 in0.0 mm
07:00 AM 29.7°F-1.3°C 26.8°F-2.9°C 89% - E16091.8 kmh E -- 29.83 in1010.2 mb 0.00 in0.0 mm 0.00 in/hr0.0 mm/hr 0.00 in0.0 mm
07:10 AM 30.6°F-0.8°C 27.7°F-2.4°C 89% - E16091.8 kmh E -- 29.81 in1009.5 mb 0.00 in0.0 mm 0.00 in/hr0.0 mm/hr 0.00 in0.0 mm
07:20 AM 31.1°F-0.5°C 28.0°F-2.2°C 88% - E16091.8 kmh E -- 29.80 in1009.1 mb 0.00 in0.0 mm 0.00 in/hr0.0 mm/hr 0.00 in0.0 mm
07:30 AM 31.5°F-0.3°C 28.4°F-2.0°C 88% - E16091.8 kmh E -- 29.80 in1009.1 mb 0.00 in0.0 mm 0.00 in/hr0.0 mm/hr 0.00 in0.0 mm
07:40 AM 32.2°F0.1°C 28.9°F-1.7°C 88% - E16091.8 kmh E -- 29.80 in1009.1 mb 0.00 in0.0 mm 0.00 in/hr0.0 mm/hr 0.00 in0.0 mm
07:50 AM 32.7°F0.4°C 29.8°F-1.2°C 89% - E16091.8 kmh E -- 29.79 in1008.8 mb 0.00 in0.0 mm 0.00 in/hr0.0 mm/hr 0.00 in0.0 mm
08:00 AM 33.8°F1.0°C 30.9°F-0.6°C 89% - SSE16091.8 kmh SSE 1.3 mph2.1 kmh 29.77 in1008.1 mb 0.00 in0.0 mm 0.00 in/hr0.0 mm/hr 0.00 in0.0 mm
08:10 AM 34.9°F1.6°C 32.0°F0.0°C 89% 0.2 mph E0.3 kmh E 2.5 mph4.0 kmh 29.80 in1009.1 mb 0.00 in0.0 mm 0.00 in/hr0.0 mm/hr 0.00 in0.0 mm
08:20 AM 37.0°F2.8°C 34.2°F1.2°C 89% 0.4 mph E0.6 kmh E 2.0 mph3.2 kmh 29.82 in1009.8 mb 0.00 in0.0 mm 0.00 in/hr0.0 mm/hr 0.00 in0.0 mm
08:30 AM 39.6°F4.2°C 35.1°F1.7°C 84% 1.6 mph ESE2.6 kmh ESE 4.0 mph6.4 kmh 29.80 in1009.1 mb 0.00 in0.0 mm 0.00 in/hr0.0 mm/hr 0.00 in0.0 mm
08:40 AM 42.1°F5.6°C 34.7°F1.5°C 75% 1.8 mph E2.9 kmh E 4.0 mph6.4 kmh 29.80 in1009.1 mb 0.00 in0.0 mm 0.00 in/hr0.0 mm/hr 0.00 in0.0 mm
08:50 AM 44.4°F6.9°C 34.2°F1.2°C 67% 2.0 mph E3.2 kmh E 5.6 mph9.0 kmh 29.79 in1008.8 mb 0.00 in0.0 mm 0.00 in/hr0.0 mm/hr 0.00 in0.0 mm
09:00 AM 45.1°F7.3°C 32.0°F0.0°C 60% 2.2 mph E3.5 kmh E 5.4 mph8.7 kmh 29.77 in1008.1 mb 0.00 in0.0 mm 0.00 in/hr0.0 mm/hr 0.00 in0.0 mm
09:10 AM 46.9°F8.3°C 32.0°F0.0°C 56% 2.2 mph SE3.5 kmh SE 6.3 mph10.1 kmh 29.75 in1007.5 mb 0.00 in0.0 mm 0.00 in/hr0.0 mm/hr 0.00 in0.0 mm
09:20 AM 47.1°F8.4°C 30.4°F-0.9°C 52% 3.4 mph SE5.5 kmh SE 10.5 mph16.9 kmh 29.74 in1007.1 mb 0.00 in0.0 mm 0.00 in/hr0.0 mm/hr 0.00 in0.0 mm
09:30 AM 47.1°F8.4°C 29.5°F-1.4°C 50% 3.4 mph S5.5 kmh S 11.0 mph17.7 kmh 29.74 in1007.1 mb 0.00 in0.0 mm 0.00 in/hr0.0 mm/hr 0.00 in0.0 mm
09:40 AM 47.5°F8.6°C 28.8°F-1.8°C 48% 4.3 mph SSW6.9 kmh SSW 10.5 mph16.9 kmh 29.72 in1006.4 mb 0.00 in0.0 mm 0.00 in/hr0.0 mm/hr 0.00 in0.0 mm
09:50 AM 48.0°F8.9°C 28.8°F-1.8°C 47% 3.6 mph SSW5.8 kmh SSW 7.6 mph12.2 kmh 29.71 in1006.1 mb 0.00 in0.0 mm 0.00 in/hr0.0 mm/hr 0.00 in0.0 mm
10:00 AM 48.2°F9.0°C 27.3°F-2.6°C 44% 3.6 mph SSW5.8 kmh SSW 9.0 mph14.5 kmh 29.77 in1008.1 mb 0.00 in0.0 mm 0.00 in/hr0.0 mm/hr 0.00 in0.0 mm
10:10 AM 48.2°F9.0°C 25.5°F-3.6°C 41% 4.3 mph S6.9 kmh S 9.9 mph15.9 kmh 29.75 in1007.5 mb 0.00 in0.0 mm 0.00 in/hr0.0 mm/hr 0.00 in0.0 mm
10:20 AM 48.4°F9.1°C 25.7°F-3.5°C 41% 3.6 mph S5.8 kmh S 11.4 mph18.3 kmh 29.73 in1006.8 mb 0.00 in0.0 mm 0.00 in/hr0.0 mm/hr 0.00 in0.0 mm
10:30 AM 50.2°F10.1°C 26.8°F-2.9°C 40% 3.8 mph SW6.1 kmh SW 10.8 mph17.4 kmh 29.71 in1006.1 mb 0.00 in0.0 mm 0.00 in/hr0.0 mm/hr 0.00 in0.0 mm
10:40 AM 51.1°F10.6°C 27.0°F-2.8°C 39% 3.8 mph S6.1 kmh S 10.1 mph16.3 kmh 29.71 in1006.1 mb 0.00 in0.0 mm 0.00 in/hr0.0 mm/hr 0.00 in0.0 mm
10:50 AM 52.3°F11.3°C 28.0°F-2.2°C 39% 3.8 mph SW6.1 kmh SW 12.8 mph20.6 kmh 29.70 in1005.8 mb 0.00 in0.0 mm 0.00 in/hr0.0 mm/hr 0.00 in0.0 mm
11:00 AM 54.0°F12.2°C 28.2°F-2.1°C 37% 4.7 mph S7.6 kmh S 11.0 mph17.7 kmh 29.68 in1005.1 mb 0.00 in0.0 mm 0.00 in/hr0.0 mm/hr 0.00 in0.0 mm
11:10 AM 54.3°F12.4°C 27.9°F-2.3°C 36% 4.3 mph SSW6.9 kmh SSW 13.0 mph20.9 kmh 29.68 in1005.1 mb 0.00 in0.0 mm 0.00 in/hr0.0 mm/hr 0.00 in0.0 mm
11:20 AM 54.3°F12.4°C 27.9°F-2.3°C 36% 4.5 mph S7.2 kmh S 12.8 mph20.6 kmh 29.68 in1005.1 mb 0.00 in0.0 mm 0.00 in/hr0.0 mm/hr 0.00 in0.0 mm
11:30 AM 56.5°F13.6°C 29.1°F-1.6°C 35% 4.0 mph SSW6.4 kmh SSW 13.2 mph21.2 kmh 29.68 in1005.1 mb 0.00 in0.0 mm 0.00 in/hr0.0 mm/hr 0.00 in0.0 mm
11:40 AM 55.8°F13.2°C 28.6°F-1.9°C 35% 5.8 mph SW9.3 kmh SW 17.5 mph28.2 kmh 29.66 in1004.4 mb 0.00 in0.0 mm 0.00 in/hr0.0 mm/hr 0.00 in0.0 mm
11:50 AM 55.0°F12.8°C 27.9°F-2.3°C 35% 5.6 mph SW9.0 kmh SW 10.8 mph17.4 kmh 29.65 in1004.1 mb 0.00 in0.0 mm 0.00 in/hr0.0 mm/hr 0.00 in0.0 mm
12:00 PM 54.7°F12.6°C 28.2°F-2.1°C 36% 4.5 mph SSW7.2 kmh SSW 8.8 mph14.2 kmh 29.62 in1003.0 mb 0.00 in0.0 mm 0.00 in/hr0.0 mm/hr 0.00 in0.0 mm
12:10 PM 54.0°F12.2°C 27.5°F-2.5°C 36% 4.5 mph SW7.2 kmh SW 15.5 mph24.9 kmh 29.62 in1003.0 mb 0.00 in0.0 mm 0.00 in/hr0.0 mm/hr 0.00 in0.0 mm
12:20 PM 53.1°F11.7°C 26.8°F-2.9°C 36% 4.5 mph SSW7.2 kmh SSW 11.9 mph19.2 kmh 29.62 in1003.0 mb 0.00 in0.0 mm 0.00 in/hr0.0 mm/hr 0.00 in0.0 mm
12:30 PM 52.7°F11.5°C 26.4°F-3.1°C 36% 4.9 mph SW7.9 kmh SW 13.5 mph21.7 kmh 29.62 in1003.0 mb 0.00 in0.0 mm 0.00 in/hr0.0 mm/hr 0.00 in0.0 mm
12:40 PM 52.0°F11.1°C 25.9°F-3.4°C 36% 4.7 mph SSW7.6 kmh SSW 10.8 mph17.4 kmh 29.60 in1002.4 mb 0.00 in0.0 mm 0.00 in/hr0.0 mm/hr 0.00 in0.0 mm
12:50 PM 51.6°F10.9°C 26.2°F-3.2°C 37% 5.4 mph SSW8.7 kmh SSW 10.5 mph16.9 kmh 29.59 in1002.0 mb 0.00 in0.0 mm 0.00 in/hr0.0 mm/hr 0.00 in0.0 mm
01:00 PM 50.9°F10.5°C 26.2°F-3.2°C 38% 3.8 mph SW6.1 kmh SW 11.0 mph17.7 kmh 29.59 in1002.0 mb 0.00 in0.0 mm 0.00 in/hr0.0 mm/hr 0.00 in0.0 mm
01:10 PM 50.9°F10.5°C 26.2°F-3.2°C 38% 4.0 mph SW6.4 kmh SW 15.5 mph24.9 kmh 29.62 in1003.0 mb 0.00 in0.0 mm 0.00 in/hr0.0 mm/hr 0.00 in0.0 mm
01:20 PM 50.0°F10.0°C 27.1°F-2.7°C 41% 3.8 mph SW6.1 kmh SW 9.9 mph15.9 kmh 29.65 in1004.1 mb 0.00 in0.0 mm 0.00 in/hr0.0 mm/hr 0.00 in0.0 mm
01:30 PM 49.3°F9.6°C 29.8°F-1.2°C 47% 3.1 mph SW5.0 kmh SW 7.6 mph12.2 kmh 29.62 in1003.0 mb 0.00 in0.0 mm 0.00 in/hr0.0 mm/hr 0.00 in0.0 mm
01:40 PM 48.2°F9.0°C 30.9°F-0.6°C 51% 4.9 mph SW7.9 kmh SW 11.9 mph19.2 kmh 29.62 in1003.0 mb 0.00 in0.0 mm 0.00 in/hr0.0 mm/hr 0.00 in0.0 mm
01:50 PM 47.1°F8.4°C 33.1°F0.6°C 58% 3.4 mph S5.5 kmh S 8.1 mph13.0 kmh 29.62 in1003.0 mb 0.00 in0.0 mm 0.00 in/hr0.0 mm/hr 0.00 in0.0 mm
02:00 PM 46.8°F8.2°C 33.6°F0.9°C 60% 4.0 mph S6.4 kmh S 10.1 mph16.3 kmh 29.59 in1002.0 mb 0.00 in0.0 mm 0.00 in/hr0.0 mm/hr 0.00 in0.0 mm
02:10 PM 46.6°F8.1°C 35.1°F1.7°C 64% 3.8 mph SSW6.1 kmh SSW 8.5 mph13.7 kmh 29.59 in1002.0 mb 0.00 in0.0 mm 0.00 in/hr0.0 mm/hr 0.00 in0.0 mm
02:20 PM 46.8°F8.2°C 35.6°F2.0°C 65% 3.6 mph S5.8 kmh S 12.1 mph19.5 kmh 29.59 in1002.0 mb 0.00 in0.0 mm 0.00 in/hr0.0 mm/hr 0.00 in0.0 mm
02:30 PM 46.8°F8.2°C 35.6°F2.0°C 65% 3.8 mph SSW6.1 kmh SSW 10.1 mph16.3 kmh 29.59 in1002.0 mb 0.00 in0.0 mm 0.00 in/hr0.0 mm/hr 0.00 in0.0 mm
02:40 PM 46.2°F7.9°C 36.3°F2.4°C 68% 3.6 mph SE5.8 kmh SE 13.0 mph20.9 kmh 29.57 in1001.4 mb 0.00 in0.0 mm 0.00 in/hr0.0 mm/hr 0.00 in0.0 mm
02:50 PM 46.4°F8.0°C 36.9°F2.7°C 69% 3.8 mph S6.1 kmh S 10.1 mph16.3 kmh 29.56 in1001.0 mb 0.00 in0.0 mm 0.00 in/hr0.0 mm/hr 0.00 in0.0 mm
03:00 PM 46.4°F8.0°C 37.6°F3.1°C 71% 3.1 mph S5.0 kmh S 7.9 mph12.7 kmh 29.56 in1001.0 mb 0.00 in0.0 mm 0.00 in/hr0.0 mm/hr 0.00 in0.0 mm
03:10 PM 46.6°F8.1°C 38.1°F3.4°C 72% 3.6 mph SSW5.8 kmh SSW 11.4 mph18.3 kmh 29.54 in1000.3 mb 0.00 in0.0 mm 0.00 in/hr0.0 mm/hr 0.00 in0.0 mm
03:20 PM 46.0°F7.8°C 37.9°F3.3°C 73% 3.4 mph S5.5 kmh S 7.2 mph11.6 kmh 29.54 in1000.3 mb 0.00 in0.0 mm 0.00 in/hr0.0 mm/hr 0.00 in0.0 mm
03:30 PM 45.9°F7.7°C 38.7°F3.7°C 76% 2.2 mph SSE3.5 kmh SSE 6.5 mph10.5 kmh 29.56 in1001.0 mb 0.00 in0.0 mm 0.00 in/hr0.0 mm/hr 0.04 in1.0 mm
03:41 PM 45.5°F7.5°C 38.3°F3.5°C 76% 3.4 mph S5.5 kmh S 7.2 mph11.6 kmh 29.56 in1001.0 mb 0.00 in0.0 mm 0.00 in/hr0.0 mm/hr 0.04 in1.0 mm
03:51 PM 45.0°F7.2°C 38.5°F3.6°C 78% 3.4 mph S5.5 kmh S 9.4 mph15.1 kmh 29.55 in1000.7 mb 0.07 in1.8 mm 0.43 in/hr10.9 mm/hr 0.08 in2.0 mm
04:01 PM 44.4°F6.9°C 39.0°F3.9°C 81% 2.9 mph S4.7 kmh S 8.8 mph14.2 kmh 29.53 in1000.0 mb 0.00 in0.0 mm 0.00 in/hr0.0 mm/hr 0.08 in2.0 mm
04:11 PM 44.2°F6.8°C 39.4°F4.1°C 83% 2.5 mph S4.0 kmh S 4.0 mph6.4 kmh 29.53 in1000.0 mb 0.11 in2.8 mm 0.66 in/hr16.8 mm/hr 0.12 in3.0 mm
04:21 PM 44.1°F6.7°C 39.9°F4.4°C 85% 2.7 mph SE4.3 kmh SE 4.9 mph7.9 kmh 29.52 in999.7 mb 0.00 in0.0 mm 0.00 in/hr0.0 mm/hr 0.12 in3.0 mm
04:31 PM 43.9°F6.6°C 39.9°F4.4°C 86% 2.7 mph SE4.3 kmh SE 8.5 mph13.7 kmh 29.50 in999.0 mb 0.11 in2.8 mm 0.66 in/hr16.8 mm/hr 0.16 in4.1 mm
04:41 PM 44.1°F6.7°C 40.5°F4.7°C 87% 2.2 mph E3.5 kmh E 7.4 mph11.9 kmh 29.48 in998.3 mb 0.00 in0.0 mm 0.00 in/hr0.0 mm/hr 0.16 in4.1 mm
04:51 PM 44.1°F6.7°C 40.5°F4.7°C 87% 2.9 mph SSE4.7 kmh SSE 6.5 mph10.5 kmh 29.48 in998.3 mb 0.00 in0.0 mm 0.00 in/hr0.0 mm/hr 0.16 in4.1 mm
05:01 PM 44.2°F6.8°C 40.6°F4.8°C 87% 2.7 mph SE4.3 kmh SE 9.7 mph15.6 kmh 29.50 in999.0 mb 0.00 in0.0 mm 0.00 in/hr0.0 mm/hr 0.16 in4.1 mm
05:11 PM 44.2°F6.8°C 41.2°F5.1°C 89% 2.7 mph S4.3 kmh S 7.2 mph11.6 kmh 29.50 in999.0 mb 0.00 in0.0 mm 0.00 in/hr0.0 mm/hr 0.16 in4.1 mm
05:21 PM 44.2°F6.8°C 41.5°F5.3°C 90% 3.4 mph S5.5 kmh S 7.6 mph12.2 kmh 29.50 in999.0 mb 0.00 in0.0 mm 0.00 in/hr0.0 mm/hr 0.16 in4.1 mm
05:31 PM 44.2°F6.8°C 41.7°F5.4°C 91% 2.7 mph S4.3 kmh S 8.1 mph13.0 kmh 29.50 in999.0 mb 0.00 in0.0 mm 0.00 in/hr0.0 mm/hr 0.16 in4.1 mm
05:41 PM 44.6°F7.0°C 42.4°F5.8°C 92% 2.5 mph S4.0 kmh S 8.1 mph13.0 kmh 29.50 in999.0 mb 0.00 in0.0 mm 0.00 in/hr0.0 mm/hr 0.16 in4.1 mm
05:51 PM 44.6°F7.0°C 42.4°F5.8°C 92% 2.9 mph S4.7 kmh S 6.3 mph10.1 kmh 29.49 in998.6 mb 0.11 in2.8 mm 0.66 in/hr16.8 mm/hr 0.21 in5.3 mm
06:01 PM 44.6°F7.0°C 42.4°F5.8°C 92% 2.7 mph S4.3 kmh S 6.3 mph10.1 kmh 29.47 in998.0 mb 0.00 in0.0 mm 0.00 in/hr0.0 mm/hr 0.21 in5.3 mm
06:11 PM 44.6°F7.0°C 42.6°F5.9°C 93% 2.5 mph S4.0 kmh S 7.6 mph12.2 kmh 29.47 in998.0 mb 0.00 in0.0 mm 0.00 in/hr0.0 mm/hr 0.21 in5.3 mm
06:21 PM 44.6°F7.0°C 43.0°F6.1°C 94% 2.0 mph S3.2 kmh S 7.0 mph11.3 kmh 29.47 in998.0 mb 0.00 in0.0 mm 0.00 in/hr0.0 mm/hr 0.21 in5.3 mm
06:31 PM 44.6°F7.0°C 43.0°F6.1°C 94% 2.2 mph S3.5 kmh S 6.3 mph10.1 kmh 29.47 in998.0 mb 0.00 in0.0 mm 0.00 in/hr0.0 mm/hr 0.21 in5.3 mm
06:41 PM 44.6°F7.0°C 43.3°F6.3°C 95% 2.5 mph S4.0 kmh S 6.3 mph10.1 kmh 29.47 in998.0 mb 0.00 in0.0 mm 0.00 in/hr0.0 mm/hr 0.21 in5.3 mm
06:51 PM 44.6°F7.0°C 43.5°F6.4°C 96% 2.0 mph S3.2 kmh S 7.2 mph11.6 kmh 29.47 in998.0 mb 0.00 in0.0 mm 0.00 in/hr0.0 mm/hr 0.21 in5.3 mm
07:01 PM 44.6°F7.0°C 43.5°F6.4°C 96% 1.6 mph S2.6 kmh S 5.6 mph9.0 kmh 29.47 in998.0 mb 0.00 in0.0 mm 0.00 in/hr0.0 mm/hr 0.21 in5.3 mm
07:11 PM 44.6°F7.0°C 43.5°F6.4°C 96% 1.6 mph SSE2.6 kmh SSE 4.3 mph6.9 kmh 29.45 in997.3 mb 0.00 in0.0 mm 0.00 in/hr0.0 mm/hr 0.21 in5.3 mm
07:21 PM 44.8°F7.1°C 43.7°F6.5°C 96% 1.6 mph S2.6 kmh S 4.9 mph7.9 kmh 29.44 in997.0 mb 0.00 in0.0 mm 0.00 in/hr0.0 mm/hr 0.21 in5.3 mm
07:31 PM 45.0°F7.2°C 43.9°F6.6°C 96% 2.0 mph S3.2 kmh S 5.4 mph8.7 kmh 29.44 in997.0 mb 0.00 in0.0 mm 0.00 in/hr0.0 mm/hr 0.21 in5.3 mm
07:41 PM 45.1°F7.3°C 44.1°F6.7°C 96% 2.2 mph S3.5 kmh S 5.4 mph8.7 kmh 29.44 in997.0 mb 0.00 in0.0 mm 0.00 in/hr0.0 mm/hr 0.21 in5.3 mm
07:51 PM 45.0°F7.2°C 43.9°F6.6°C 96% 1.1 mph SE1.8 kmh SE 3.1 mph5.0 kmh 29.44 in997.0 mb 0.00 in0.0 mm 0.00 in/hr0.0 mm/hr 0.21 in5.3 mm
08:01 PM 44.2°F6.8°C 43.0°F6.1°C 95% - E16091.8 kmh E 1.6 mph2.6 kmh 29.44 in997.0 mb 0.00 in0.0 mm 0.00 in/hr0.0 mm/hr 0.21 in5.3 mm
08:11 PM 43.7°F6.5°C 42.4°F5.8°C 95% 0.2 mph SSE0.3 kmh SSE 3.4 mph5.5 kmh 29.42 in996.3 mb 0.00 in0.0 mm 0.00 in/hr0.0 mm/hr 0.21 in5.3 mm
08:21 PM 43.5°F6.4°C 42.3°F5.7°C 95% 0.9 mph SSE1.4 kmh SSE 4.0 mph6.4 kmh 29.42 in996.3 mb 0.00 in0.0 mm 0.00 in/hr0.0 mm/hr 0.21 in5.3 mm
08:31 PM 43.7°F6.5°C 42.6°F5.9°C 96% 0.7 mph SSE1.1 kmh SSE 2.9 mph4.7 kmh 29.44 in997.0 mb 0.00 in0.0 mm 0.00 in/hr0.0 mm/hr 0.21 in5.3 mm
08:41 PM 44.4°F6.9°C 43.7°F6.5°C 97% 1.6 mph SE2.6 kmh SE 5.6 mph9.0 kmh 29.44 in997.0 mb 0.00 in0.0 mm 0.00 in/hr0.0 mm/hr 0.21 in5.3 mm
08:51 PM 44.8°F7.1°C 44.2°F6.8°C 98% 2.0 mph S3.2 kmh S 4.0 mph6.4 kmh 29.44 in997.0 mb 0.00 in0.0 mm 0.00 in/hr0.0 mm/hr 0.21 in5.3 mm
09:11 PM 45.1°F7.3°C 44.6°F7.0°C 98% 2.2 mph S3.5 kmh S 5.4 mph8.7 kmh 29.41 in995.9 mb 0.00 in0.0 mm 0.00 in/hr0.0 mm/hr 0.21 in5.3 mm
09:31 PM 45.3°F7.4°C 44.6°F7.0°C 97% 1.8 mph S2.9 kmh S 5.4 mph8.7 kmh 29.41 in995.9 mb 0.00 in0.0 mm 0.00 in/hr0.0 mm/hr 0.21 in5.3 mm
09:41 PM 45.3°F7.4°C 44.6°F7.0°C 97% 1.3 mph SE2.1 kmh SE 6.1 mph9.8 kmh 29.41 in995.9 mb 0.00 in0.0 mm 0.00 in/hr0.0 mm/hr 0.21 in5.3 mm
09:51 PM 45.3°F7.4°C 44.6°F7.0°C 97% 2.0 mph S3.2 kmh S 5.4 mph8.7 kmh 29.41 in995.9 mb 0.00 in0.0 mm 0.00 in/hr0.0 mm/hr 0.21 in5.3 mm
10:01 PM 45.3°F7.4°C 44.6°F7.0°C 97% 2.0 mph S3.2 kmh S 5.8 mph9.3 kmh 29.41 in995.9 mb 0.00 in0.0 mm 0.00 in/hr0.0 mm/hr 0.21 in5.3 mm
10:11 PM 45.3°F7.4°C 44.6°F7.0°C 97% 2.0 mph S3.2 kmh S 5.4 mph8.7 kmh 29.45 in997.3 mb 0.00 in0.0 mm 0.00 in/hr0.0 mm/hr 0.21 in5.3 mm
10:21 PM 45.3°F7.4°C 44.6°F7.0°C 97% 2.0 mph S3.2 kmh S 6.3 mph10.1 kmh 29.47 in998.0 mb 0.00 in0.0 mm 0.00 in/hr0.0 mm/hr 0.21 in5.3 mm
10:31 PM 45.1°F7.3°C 44.1°F6.7°C 96% 1.8 mph SSE2.9 kmh SSE 4.9 mph7.9 kmh 29.44 in997.0 mb 0.00 in0.0 mm 0.00 in/hr0.0 mm/hr 0.21 in5.3 mm
10:41 PM 45.1°F7.3°C 44.4°F6.9°C 97% 2.2 mph S3.5 kmh S 5.8 mph9.3 kmh 29.44 in997.0 mb 0.00 in0.0 mm 0.00 in/hr0.0 mm/hr 0.21 in5.3 mm
10:51 PM 45.3°F7.4°C 44.6°F7.0°C 97% 2.7 mph S4.3 kmh S 5.8 mph9.3 kmh 29.44 in997.0 mb 0.00 in0.0 mm 0.00 in/hr0.0 mm/hr 0.21 in5.3 mm
11:01 PM 45.3°F7.4°C 44.6°F7.0°C 97% 2.0 mph SE3.2 kmh SE 7.2 mph11.6 kmh 29.44 in997.0 mb 0.00 in0.0 mm 0.00 in/hr0.0 mm/hr 0.40 in10.2 mm
11:11 PM 45.5°F7.5°C 44.8°F7.1°C 97% 1.8 mph SSE2.9 kmh SSE 4.9 mph7.9 kmh 29.44 in997.0 mb 0.00 in0.0 mm 0.00 in/hr0.0 mm/hr 0.40 in10.2 mm
11:21 PM 45.5°F7.5°C 44.8°F7.1°C 97% 2.0 mph S3.2 kmh S 4.9 mph7.9 kmh 29.44 in997.0 mb 0.00 in0.0 mm 0.00 in/hr0.0 mm/hr 0.40 in10.2 mm
11:31 PM 45.5°F7.5°C 44.8°F7.1°C 97% 2.0 mph SSE3.2 kmh SSE 4.3 mph6.9 kmh 29.41 in995.9 mb 0.00 in0.0 mm 0.00 in/hr0.0 mm/hr 0.40 in10.2 mm
11:41 PM 45.5°F7.5°C 44.8°F7.1°C 97% 1.6 mph S2.6 kmh S 5.4 mph8.7 kmh 29.41 in995.9 mb 0.00 in0.0 mm 0.00 in/hr0.0 mm/hr 0.40 in10.2 mm
11:51 PM 45.5°F7.5°C 44.8°F7.1°C 97% 2.2 mph S3.5 kmh S 5.6 mph9.0 kmh 29.41 in995.9 mb 0.00 in0.0 mm 0.00 in/hr0.0 mm/hr 0.40 in10.2 mm